Time;durP1;ratioP1;P1;durP2;ratioP2;P2;SDS_P1;SDS_P2;PMS_P1;PMS_P2;Temp;Humidity;BMP_temperature;BMP_pressure;BME280_temperature;BME280_humidity;BME280_pressure;Samples;Min_cycle;Max_cycle;Signal;HPM_P1;HPM_P2
2022/05/28 00:00:01;;;;;;;13.93;5.25;;;;;;;22.96;52.56;99355.16;3120436;28;20054;-75
2022/05/28 00:01:33;;;;;;;7.93;3.92;;;;;;;22.92;52.48;99352.81;3120171;28;20073;-75
2022/05/28 00:03:04;;;;;;;15.10;4.78;;;;;;;22.91;52.82;99350.28;3120730;28;20353;-75
2022/05/28 00:04:36;;;;;;;12.43;5.20;;;;;;;22.90;52.51;99348.63;3126065;28;20123;-75
2022/05/28 00:06:10;;;;;;;10.38;5.00;;;;;;;22.87;52.49;99355.09;3120363;28;20049;-75
2022/05/28 00:07:43;;;;;;;13.45;4.60;;;;;;;22.84;52.69;99347.44;3120735;28;20107;-75
2022/05/28 00:09:15;;;;;;;;;;;;;;;22.78;52.79;99353.41;3120436;28;20420;-74
2022/05/28 00:10:47;;;;;;;14.88;4.72;;;;;;;;;;3120430;28;19925;-74
2022/05/28 00:12:18;;;;;;;10.95;4.78;;;;;;;22.49;52.77;99304.13;3120659;28;20053;-74
2022/05/28 00:13:52;;;;;;;14.30;5.13;;;;;;;22.70;52.83;99343.56;3120053;28;20072;-74
2022/05/28 00:15:24;;;;;;;9.40;4.45;;;;;;;22.67;52.84;99337.72;3120335;28;20142;-74
2022/05/28 00:16:56;;;;;;;14.82;5.95;;;;;;;22.65;52.96;99339.72;3120162;28;20058;-74
2022/05/28 00:18:28;;;;;;;12.63;5.38;;;;;;;22.42;52.94;99295.16;3120494;28;20572;-74
2022/05/28 00:20:00;;;;;;;13.50;5.20;;;;;;;22.46;53.12;99307.09;3114250;28;20053;-74
2022/05/28 00:21:32;;;;;;;10.77;4.43;;;;;;;22.64;53.14;99335.41;3120200;28;20136;-75
2022/05/28 00:23:05;;;;;;;10.30;4.65;;;;;;;22.61;53.13;99333.06;3121483;28;20060;-75
2022/05/28 00:24:37;;;;;;;;;;;;;;;22.58;53.12;99331.56;3120896;28;20053;-75
2022/05/28 00:26:09;;;;;;;12.18;5.00;;;;;;;22.58;53.13;99328.91;3120259;28;19921;-74
2022/05/28 00:27:41;;;;;;;19.42;5.50;;;;;;;22.58;52.95;99328.06;3120480;28;20122;-74
2022/05/28 00:29:12;;;;;;;15.18;5.05;;;;;;;22.58;53.14;99323.59;3120277;28;20148;-74
2022/05/28 00:30:44;;;;;;;18.92;5.55;;;;;;;22.58;53.37;99317.47;3120091;28;20724;-74
2022/05/28 00:32:15;;;;;;;15.43;5.15;;;;;;;22.56;53.06;99319.41;3124289;28;20050;-74
2022/05/28 00:33:47;;;;;;;15.27;4.90;;;;;;;22.45;53.38;99299.28;3119914;28;20578;-74
2022/05/28 00:35:21;;;;;;;11.82;4.93;;;;;;;22.58;53.31;99315.63;3119994;28;20049;-74
2022/05/28 00:36:53;;;;;;;12.90;5.32;;;;;;;22.57;53.31;99307.81;3120411;28;20464;-74
2022/05/28 00:38:27;;;;;;;10.38;5.03;;;;;;;22.55;53.53;99307.16;3119767;28;20053;-74
2022/05/28 00:39:58;;;;;;;10.43;5.63;;;;;;;22.36;53.37;99274.56;3120065;28;20489;-74
2022/05/28 00:41:30;;;;;;;17.95;5.45;;;;;;;22.57;53.63;99310.47;3120373;28;20053;-78
2022/05/28 00:43:06;;;;;;;14.32;5.03;;;;;;;22.57;53.47;99315.78;3113591;28;20068;-78
2022/05/28 00:44:38;;;;;;;11.93;4.85;;;;;;;22.55;53.75;99313.28;3120822;28;20056;-78
2022/05/28 00:46:13;;;;;;;12.98;5.43;;;;;;;22.39;53.77;99289.31;3122448;28;20057;-78
2022/05/28 00:47:49;;;;;;;13.25;5.50;;;;;;;22.53;53.93;99320.56;3122417;28;20485;-78
2022/05/28 00:49:25;;;;;;;12.48;5.55;;;;;;;22.52;53.83;99321.56;3122533;28;20111;-78
2022/05/28 00:50:58;;;;;;;17.20;5.85;;;;;;;22.31;54.02;99292.75;3122093;28;20103;-78
2022/05/28 00:52:30;;;;;;;15.40;5.68;;;;;;;22.33;54.37;99295.25;3122673;28;20053;-78
2022/05/28 00:54:05;;;;;;;16.13;5.30;;;;;;;22.49;54.05;99325.38;3122899;28;20085;-78
2022/05/28 00:55:37;;;;;;;16.65;5.65;;;;;;;22.46;54.45;99317.72;3121689;28;20045;-79
2022/05/28 00:57:10;;;;;;;14.13;5.95;;;;;;;22.44;54.34;99317.03;3122357;28;20438;-78
2022/05/28 00:58:42;;;;;;;19.13;5.72;;;;;;;22.45;54.14;99321.38;3122307;28;20519;-77
2022/05/28 01:00:17;;;;;;;13.65;5.35;;;;;;;22.45;54.41;99321.38;3124529;28;20507;-77
2022/05/28 01:01:49;;;;;;;11.98;5.25;;;;;;;22.44;54.16;99322.34;3122123;28;20131;-77
2022/05/28 01:03:31;;;;;;;13.77;5.80;;;;;;;22.43;54.54;99320.69;3122179;28;20103;-77
2022/05/28 01:05:09;;;;;;;14.13;5.38;;;;;;;22.41;54.42;99322.66;3122369;28;20064;-77
2022/05/28 01:06:49;;;;;;;12.52;6.07;;;;;;;22.18;54.54;99287.88;3122179;28;20103;-77
2022/05/28 01:08:32;;;;;;;13.27;6.30;;;;;;;22.17;54.92;99302.13;3122331;28;20436;-77
2022/05/28 01:10:17;;;;;;;15.30;5.90;;;;;;;22.13;55.17;99297.28;3121682;28;20545;-77
2022/05/28 01:11:56;;;;;;;21.15;5.95;;;;;;;22.18;55.44;99318.84;3122094;28;20045;-77
2022/05/28 01:13:35;;;;;;;13.02;6.18;;;;;;;22.13;55.42;99319.31;3123053;28;20050;-77
2022/05/28 01:15:13;;;;;;;21.70;6.60;;;;;;;21.73;55.26;99262.34;3122256;28;20118;-77
2022/05/28 01:16:50;;;;;;;19.55;6.13;;;;;;;22.07;55.80;99325.22;3122416;28;20049;-77
2022/05/28 01:18:30;;;;;;;16.30;6.53;;;;;;;22.02;55.92;99330.97;3122043;28;20573;-77
2022/05/28 01:20:07;;;;;;;13.77;5.93;;;;;;;21.94;56.02;99325.63;3125383;28;20053;-77
2022/05/28 01:21:48;;;;;;;13.18;6.38;;;;;;;21.91;56.04;99328.56;3116163;28;20103;-77
2022/05/28 01:23:49;;;;;;;15.13;5.55;;;;;;;21.89;56.27;99325.25;3122142;28;20112;-77
2022/05/28 01:25:29;;;;;;;16.83;7.65;;;;;;;21.86;56.35;99324.72;3121935;28;20046;-76
2022/05/28 01:27:07;;;;;;;11.15;5.68;;;;;;;21.81;56.30;99317.25;3122260;28;20447;-75
2022/05/28 01:28:41;;;;;;;13.77;5.60;;;;;;;21.76;56.53;99312.38;3122546;28;20049;-74
2022/05/28 01:30:15;;;;;;;13.43;5.80;;;;;;;21.84;56.46;99327.53;3121691;28;20103;-73
2022/05/28 01:31:49;;;;;;;13.68;6.13;;;;;;;21.83;56.69;99323.22;3122000;28;20450;-73
2022/05/28 01:33:20;;;;;;;;;;;;;;;21.78;56.42;99326.31;3122128;28;20046;-73
2022/05/28 01:34:53;;;;;;;13.82;5.78;;;;;;;21.77;56.59;99326.50;3122016;28;19921;-73
2022/05/28 01:36:26;;;;;;;17.90;6.38;;;;;;;21.76;56.71;99317.69;3121931;28;20049;-76
2022/05/28 01:37:59;;;;;;;16.58;6.45;;;;;;;21.75;56.85;99323.16;3121405;28;20050;-77
2022/05/28 01:39:32;;;;;;;14.77;5.78;;;;;;;21.74;56.87;99326.75;3122148;28;20404;-76
2022/05/28 01:41:06;;;;;;;11.85;5.85;;;;;;;21.72;57.07;99326.09;3121717;28;20053;-75
2022/05/28 01:42:45;;;;;;;22.95;6.68;;;;;;;21.70;56.85;99325.41;3121534;28;20053;-76
2022/05/28 01:44:18;;;;;;;13.15;6.57;;;;;;;21.58;57.34;99315.03;3122010;28;20053;-76
2022/05/28 01:45:51;;;;;;;11.02;6.57;;;;;;;21.67;57.23;99328.38;3121666;28;20119;-76
2022/05/28 01:47:24;;;;;;;12.38;6.28;;;;;;;21.61;57.23;99318.38;3121771;28;20046;-76
2022/05/28 01:48:57;;;;;;;16.35;7.30;;;;;;;21.65;57.33;99325.88;3121632;28;20050;-76
2022/05/28 01:50:30;;;;;;;16.80;6.10;;;;;;;21.38;57.31;99276.44;3121203;28;20477;-76
2022/05/28 01:52:02;;;;;;;;;;;;;;;21.58;57.38;99320.34;3116050;28;20049;-74
2022/05/28 01:55:28;;;;;;;21.95;6.82;;;;;;;21.55;57.70;99325.94;3121497;28;20049;-74
2022/05/28 01:57:00;;;;;;;12.50;6.68;;;;;;;21.55;57.71;99325.13;3127274;28;20053;-74
2022/05/28 01:58:34;;;;;;;12.68;6.10;;;;;;;21.42;57.97;99304.31;3121761;28;20053;-74
2022/05/28 02:00:09;;;;;;;17.15;6.85;;;;;;;21.52;57.89;99317.47;3121768;28;20057;-73
2022/05/28 02:01:42;;;;;;;18.60;6.80;;;;;;;21.49;58.16;99313.31;3120505;28;20057;-74
2022/05/28 02:03:14;;;;;;;24.48;6.50;;;;;;;21.48;58.27;99314.28;3121463;28;20070;-74
2022/05/28 02:04:49;;;;;;;16.30;7.38;;;;;;;21.50;57.99;99314.13;3121478;28;20076;-73
2022/05/28 02:06:20;;;;;;;18.48;6.78;;;;;;;21.49;58.34;99302.69;3126846;28;20572;-74
2022/05/28 02:07:52;;;;;;;15.40;7.13;;;;;;;21.48;58.22;99295.75;3121549;28;20050;-73
2022/05/28 02:09:28;;;;;;;18.10;6.60;;;;;;;21.47;58.60;99299.38;3121288;28;20083;-73
2022/05/28 02:11:11;;;;;;;20.77;7.50;;;;;;;21.47;58.47;99303.84;3121577;28;20111;-71
2022/05/28 02:12:53;;;;;;;22.70;7.10;;;;;;;21.45;58.35;99304.00;3116414;28;20056;-71
2022/05/28 02:14:37;;;;;;;14.73;6.55;;;;;;;21.45;58.54;99292.59;3121330;28;20439;-71
2022/05/28 02:16:15;;;;;;;16.75;6.63;;;;;;;21.43;58.58;99295.38;3122145;28;20084;-71
2022/05/28 02:17:50;;;;;;;18.38;6.25;;;;;;;21.37;58.44;99295.97;3121518;28;20100;-72
2022/05/28 02:19:27;;;;;;;22.75;7.07;;;;;;;21.41;58.75;99302.63;3116310;28;20791;-71
2022/05/28 02:21:04;;;;;;;18.20;6.32;;;;;;;21.40;58.74;99306.25;3121352;28;20049;-72
2022/05/28 02:22:44;;;;;;;22.50;7.00;;;;;;;21.38;59.34;99302.91;3121443;28;20486;-72
2022/05/28 02:24:22;;;;;;;21.95;6.70;;;;;;;21.34;59.41;99302.38;3121246;28;20053;-72
2022/05/28 02:26:01;;;;;;;16.48;6.50;;;;;;;21.31;59.37;99296.53;3121156;28;20085;-72
2022/05/28 02:27:34;;;;;;;18.25;6.90;;;;;;;21.33;59.30;99303.34;3121613;28;20507;-72
2022/05/28 02:29:07;;;;;;;20.88;7.55;;;;;;;21.33;59.17;99306.00;3121168;28;20049;-72
2022/05/28 02:30:48;;;;;;;14.13;6.90;;;;;;;21.33;59.25;99310.47;3121163;28;20062;-72
2022/05/28 02:32:22;;;;;;;14.65;6.53;;;;;;;21.32;59.17;99309.63;3121452;28;20103;-73
2022/05/28 02:33:55;;;;;;;14.60;6.28;;;;;;;21.33;59.39;99313.13;3114947;28;20111;-73
2022/05/28 02:35:27;;;;;;;17.55;7.20;;;;;;;21.17;59.43;99289.09;3116875;28;20050;-73
2022/05/28 02:36:59;;;;;;;19.58;6.93;;;;;;;21.33;59.38;99315.78;3120236;28;20104;-72
2022/05/28 02:38:31;;;;;;;20.27;8.23;;;;;;;21.31;59.35;99313.25;3120735;28;20054;-71
2022/05/28 02:40:04;;;;;;;19.58;7.18;;;;;;;21.26;59.37;99315.50;3121297;28;20057;-72
2022/05/28 02:41:36;;;;;;;15.32;6.72;;;;;;;21.26;59.57;99322.63;3121206;28;20503;-72
2022/05/28 02:43:07;;;;;;;16.98;7.13;;;;;;;21.23;59.56;99323.75;3120725;28;20054;-72
2022/05/28 02:44:39;;;;;;;18.25;6.80;;;;;;;21.28;59.67;99325.97;3121362;28;20111;-73
2022/05/28 02:46:12;;;;;;;16.90;8.00;;;;;;;21.29;59.49;99330.28;3114804;28;20058;-72
2022/05/28 02:47:44;;;;;;;;;;;;;;;21.26;59.47;99330.56;3121389;28;20533;-71
2022/05/28 02:49:16;;;;;;;22.75;7.90;;;;;;;21.16;59.51;99324.53;3120841;28;19928;-71
2022/05/28 02:50:48;;;;;;;17.40;8.00;;;;;;;21.20;59.93;99339.13;3120990;28;20115;-71
2022/05/28 02:52:19;;;;;;;17.17;7.53;;;;;;;21.17;59.96;99334.94;3120843;28;20132;-72
2022/05/28 02:53:53;;;;;;;26.10;8.43;;;;;;;20.97;60.11;99321.00;3119969;28;20485;-71
2022/05/28 02:55:25;;;;;;;15.27;7.75;;;;;;;21.07;60.49;99342.97;3120944;28;20058;-71
2022/05/28 02:56:56;;;;;;;24.17;7.30;;;;;;;21.03;60.56;99338.09;3121362;28;20523;-72
2022/05/28 02:58:29;;;;;;;19.33;7.90;;;;;;;20.98;60.88;99341.19;3120750;28;20427;-72
2022/05/28 03:00:01;;;;;;;17.15;7.72;;;;;;;20.95;60.88;99345.94;3120711;28;20049;-71
2022/05/28 03:01:34;;;;;;;20.17;7.90;;;;;;;20.68;61.05;99307.91;3120704;28;20424;-71
2022/05/28 03:03:06;;;;;;;20.77;8.18;;;;;;;20.90;61.14;99341.91;3120838;28;20068;-71
2022/05/28 03:04:38;;;;;;;26.90;8.77;;;;;;;20.87;61.17;99338.72;3120987;28;20131;-72
2022/05/28 03:06:10;;;;;;;20.25;8.38;;;;;;;20.87;61.14;99341.38;3121108;28;20115;-72
2022/05/28 03:07:43;;;;;;;20.77;8.25;;;;;;;20.64;60.95;99299.41;3119831;28;20084;-72
2022/05/28 03:09:17;;;;;;;23.07;8.30;;;;;;;20.90;60.95;99338.44;3120905;28;20112;-73
2022/05/28 03:10:49;;;;;;;18.08;7.32;;;;;;;20.92;60.87;99333.00;3122569;28;20311;-72
2022/05/28 03:12:21;;;;;;;22.35;8.15;;;;;;;20.94;60.81;99334.53;3125114;28;20057;-72
2022/05/28 03:13:53;;;;;;;27.15;8.45;;;;;;;20.95;60.67;99336.19;3120870;28;20536;-72
2022/05/28 03:15:25;;;;;;;22.70;7.97;;;;;;;20.98;60.49;99341.19;3120652;28;20057;-72
2022/05/28 03:16:58;;;;;;;16.58;7.72;;;;;;;21.00;60.58;99347.19;3120875;28;20438;-72
2022/05/28 03:18:30;;;;;;;16.25;7.57;;;;;;;21.03;60.55;99351.31;3120627;28;20053;-71
2022/05/28 03:20:02;;;;;;;20.92;8.13;;;;;;;21.02;60.50;99350.50;3120456;28;20111;-71
2022/05/28 03:21:34;;;;;;;21.45;8.43;;;;;;;21.06;60.74;99351.88;3121012;28;20100;-71
2022/05/28 03:23:06;;;;;;;22.60;7.72;;;;;;;21.06;60.55;99351.88;3120524;28;20053;-71
2022/05/28 03:24:38;;;;;;;19.67;7.90;;;;;;;21.04;60.83;99351.19;3117174;28;20046;-72
2022/05/28 03:26:12;;;;;;;21.08;7.65;;;;;;;21.09;60.87;99356.88;3119236;28;20107;-72
2022/05/28 03:27:44;;;;;;;16.90;8.65;;;;;;;21.10;61.02;99352.41;3120355;28;20140;-72
2022/05/28 03:29:16;;;;;;;21.48;8.38;;;;;;;21.12;60.80;99353.94;3120728;28;20124;-73
2022/05/28 03:30:47;;;;;;;23.50;8.45;;;;;;;21.14;60.97;99359.06;3120920;28;20049;-73
2022/05/28 03:32:20;;;;;;;16.77;7.78;;;;;;;21.14;60.87;99348.47;3120239;28;20433;-73
2022/05/28 03:33:52;;;;;;;;;;;;;;;21.11;60.69;99360.19;3121276;28;20049;-73
2022/05/28 03:35:24;;;;;;;16.88;7.95;;;;;;;21.12;61.02;99361.06;3116703;28;19925;-74
2022/05/28 03:36:56;;;;;;;20.38;8.48;;;;;;;21.14;60.63;99359.06;3119601;28;20060;-74
2022/05/28 03:38:28;;;;;;;19.88;8.25;;;;;;;21.12;60.84;99356.59;3120659;28;20050;-74
2022/05/28 03:40:00;;;;;;;19.45;7.45;;;;;;;20.97;60.66;99331.59;3120356;28;20494;-73
2022/05/28 03:41:32;;;;;;;29.60;8.73;;;;;;;21.19;61.03;99366.59;3120609;28;20143;-74
2022/05/28 03:43:06;;;;;;;22.10;8.52;;;;;;;21.18;61.08;99364.91;3120534;28;20479;-74
2022/05/28 03:44:38;;;;;;;21.67;7.82;;;;;;;21.19;60.96;99371.88;3120560;28;20054;-74
2022/05/28 03:46:21;;;;;;;23.25;8.10;;;;;;;21.19;61.16;99371.88;3120407;28;20052;-74
2022/05/28 03:47:55;;;;;;;17.83;7.77;;;;;;;21.25;61.14;99373.94;3120282;28;20077;-74
2022/05/28 03:49:30;;;;;;;19.60;7.82;;;;;;;21.23;60.92;99376.72;3120362;28;20498;-73
2022/05/28 03:51:02;;;;;;;24.45;8.43;;;;;;;21.28;61.14;99382.41;3120716;28;20103;-73
2022/05/28 03:52:34;;;;;;;18.55;8.10;;;;;;;21.27;61.03;99369.34;3120379;28;20049;-73
2022/05/28 03:54:06;;;;;;;21.85;8.27;;;;;;;21.24;60.96;99370.47;3120208;28;20077;-72
2022/05/28 03:55:40;;;;;;;15.83;8.40;;;;;;;21.33;61.12;99388.13;3120473;28;20052;-73
2022/05/28 03:57:14;;;;;;;21.63;9.40;;;;;;;21.36;61.00;99384.38;3120556;28;20102;-73
2022/05/28 03:58:47;;;;;;;18.20;8.88;;;;;;;21.38;60.93;99386.84;3120539;28;20518;-72
2022/05/28 04:00:20;;;;;;;18.15;8.27;;;;;;;21.41;60.79;99386.56;3120179;28;20099;-71
2022/05/28 04:01:53;;;;;;;15.93;8.07;;;;;;;21.42;61.17;99398.84;3120626;28;20099;-71
2022/05/28 04:03:26;;;;;;;27.42;9.23;;;;;;;21.44;61.12;99395.03;3120501;28;20127;-71
2022/05/28 04:04:58;;;;;;;20.65;8.98;;;;;;;21.46;61.16;99394.91;3114009;28;20049;-72
2022/05/28 04:06:30;;;;;;;17.70;7.88;;;;;;;21.48;61.05;99395.59;3120180;28;20053;-72
2022/05/28 04:08:02;;;;;;;16.77;8.23;;;;;;;21.47;60.96;99394.72;3120675;28;20053;-72
2022/05/28 04:09:34;;;;;;;14.48;8.18;;;;;;;21.47;60.99;99392.09;3120485;28;20513;-72
2022/05/28 04:11:05;;;;;;;20.90;8.15;;;;;;;21.48;61.26;99400.88;3120080;28;20053;-72
2022/05/28 04:12:37;;;;;;;16.83;7.97;;;;;;;21.49;60.97;99405.19;3120148;28;20450;-72
2022/05/28 04:14:09;;;;;;;17.77;8.07;;;;;;;21.48;61.02;99401.72;3120374;28;20061;-72
2022/05/28 04:15:41;;;;;;;16.42;7.72;;;;;;;21.48;60.93;99408.84;3120329;28;20068;-72
2022/05/28 04:17:13;;;;;;;14.85;7.25;;;;;;;21.46;61.11;99401.03;3120073;28;20111;-72
2022/05/28 04:18:46;;;;;;;17.15;8.00;;;;;;;21.45;61.35;99396.72;3119546;28;20534;-72
2022/05/28 04:20:18;;;;;;;;;;;;;;;21.39;61.38;99407.91;3121253;28;20053;-72
2022/05/28 04:21:50;;;;;;;19.00;8.13;;;;;;;21.38;61.34;99408.03;3122674;28;20310;-73
2022/05/28 04:23:22;;;;;;;14.95;8.48;;;;;;;21.38;61.39;99419.47;3122615;28;20045;-72
2022/05/28 04:24:54;;;;;;;17.15;7.80;;;;;;;21.38;61.74;99424.75;3122410;28;20517;-72
2022/05/28 04:26:25;;;;;;;26.17;8.68;;;;;;;21.40;61.67;99422.81;3122819;28;20590;-72
2022/05/28 04:27:57;;;;;;;18.65;8.98;;;;;;;21.36;61.90;99426.75;3116136;28;20056;-72
2022/05/28 04:29:29;;;;;;;18.30;8.73;;;;;;;21.39;61.82;99425.63;3122576;28;20057;-72
2022/05/28 04:31:01;;;;;;;21.35;8.75;;;;;;;21.39;62.17;99420.31;3122712;28;20052;-72
2022/05/28 04:32:33;;;;;;;19.77;9.10;;;;;;;21.40;62.09;99427.28;3122755;28;20053;-72
2022/05/28 04:34:06;;;;;;;18.30;8.52;;;;;;;21.38;62.35;99424.75;3122298;28;20123;-73
2022/05/28 04:35:38;;;;;;;15.40;7.88;;;;;;;21.29;62.80;99415.84;3118212;28;20042;-72
2022/05/28 04:37:10;;;;;;;19.55;7.72;;;;;;;21.29;62.82;99420.31;3122194;28;20103;-71
2022/05/28 04:38:42;;;;;;;14.10;8.52;;;;;;;21.19;62.97;99408.97;3116905;28;20507;-72
2022/05/28 04:40:14;;;;;;;16.55;8.60;;;;;;;21.21;63.04;99412.28;3122114;28;20057;-72
2022/05/28 04:41:46;;;;;;;25.10;9.10;;;;;;;21.08;63.18;99392.25;3121840;28;20049;-73
2022/05/28 04:43:18;;;;;;;14.13;7.80;;;;;;;21.13;63.58;99413.84;3122669;28;20049;-73
2022/05/28 04:44:50;;;;;;;21.40;8.23;;;;;;;21.12;63.82;99409.53;3122649;28;20113;-73
2022/05/28 04:46:22;;;;;;;18.58;8.02;;;;;;;20.73;63.67;99347.97;3122197;28;20601;-73
2022/05/28 04:47:54;;;;;;;17.50;7.95;;;;;;;21.08;63.78;99408.16;3122716;28;20052;-73
2022/05/28 04:49:27;;;;;;;19.90;9.35;;;;;;;21.02;64.04;99398.16;3122089;28;20061;-72
2022/05/28 04:50:59;;;;;;;;;;;;;;;21.12;63.69;99412.19;3123146;28;20053;-73
2022/05/28 04:52:31;;;;;;;14.95;7.03;;;;;;;21.14;63.42;99399.63;3122213;28;19921;-72
2022/05/28 04:54:03;;;;;;;15.60;8.00;;;;;;;21.16;63.86;99404.78;3121849;28;20431;-72
2022/05/28 04:55:35;;;;;;;23.50;7.32;;;;;;;21.01;63.86;99370.03;3122672;28;20053;-72
2022/05/28 04:57:07;;;;;;;14.95;7.57;;;;;;;21.22;64.16;99404.19;3122425;28;20045;-74
2022/05/28 04:58:38;;;;;;;22.10;8.35;;;;;;;21.20;64.09;99400.84;3122251;28;20057;-71
2022/05/28 05:00:13;;;;;;;23.55;8.00;;;;;;;21.23;64.15;99394.44;3122109;28;20107;-73
2022/05/28 05:01:45;;;;;;;17.10;8.10;;;;;;;21.20;64.26;99390.25;3121202;28;20069;-71
2022/05/28 05:03:17;;;;;;;20.20;8.57;;;;;;;21.24;64.21;99388.16;3121963;28;20103;-73
2022/05/28 05:04:55;;;;;;;16.95;7.18;;;;;;;21.21;63.88;99384.00;3125895;28;20076;-71
2022/05/28 05:06:27;;;;;;;16.45;7.55;;;;;;;21.28;63.87;99389.53;3121980;28;20053;-73
2022/05/28 05:07:58;;;;;;;18.63;6.70;;;;;;;21.33;63.50;99393.41;3122724;28;20049;-70
2022/05/28 05:09:30;;;;;;;14.23;7.20;;;;;;;21.41;63.33;99391.84;3124233;28;20057;-73
2022/05/28 05:11:03;;;;;;;16.48;6.95;;;;;;;21.48;62.97;99387.66;3121868;28;20049;-72
2022/05/28 05:12:35;;;;;;;13.83;7.53;;;;;;;21.54;62.87;99382.56;3122329;28;20054;-72
2022/05/28 05:14:07;;;;;;;18.80;7.32;;;;;;;21.49;62.65;99366.28;3121882;28;20053;-72
2022/05/28 05:15:39;;;;;;;14.60;7.82;;;;;;;21.42;62.42;99340.56;3122140;28;20049;-73
2022/05/28 05:17:11;;;;;;;19.63;8.85;;;;;;;21.62;62.24;99367.72;3121933;28;20439;-72
2022/05/28 05:18:43;;;;;;;22.48;7.80;;;;;;;21.68;62.13;99373.28;3121912;28;20049;-74
2022/05/28 05:20:17;;;;;;;22.15;8.23;;;;;;;21.74;61.97;99371.81;3122029;28;20406;-72
2022/05/28 05:21:48;;;;;;;22.05;6.68;;;;;;;21.74;61.61;99363.88;3121795;28;20057;-72
2022/05/28 05:23:20;;;;;;;17.63;6.80;;;;;;;21.84;61.48;99372.59;3121864;28;20045;-71
2022/05/28 05:24:52;;;;;;;14.25;6.75;;;;;;;21.91;61.46;99378.09;3122391;28;20054;-73
2022/05/28 05:26:24;;;;;;;22.75;6.93;;;;;;;21.79;60.77;99343.88;3121577;28;20515;-72
2022/05/28 05:27:55;;;;;;;16.95;7.47;;;;;;;22.04;60.89;99374.09;3122010;28;20060;-73
2022/05/28 05:29:27;;;;;;;18.90;7.30;;;;;;;22.08;60.71;99363.19;3121988;28;20535;-75
2022/05/28 05:30:59;;;;;;;15.68;6.85;;;;;;;22.16;60.59;99360.59;3120118;28;20041;-71
2022/05/28 05:32:31;;;;;;;18.10;7.07;;;;;;;22.12;60.17;99348.63;3121901;28;20057;-74
2022/05/28 05:34:04;;;;;;;13.57;6.30;;;;;;;22.35;59.98;99375.50;3121970;28;20416;-72
2022/05/28 05:35:37;;;;;;;16.45;6.78;;;;;;;22.40;59.52;99374.06;3117499;28;20056;-74
2022/05/28 05:37:08;;;;;;;;;;;;;;;22.46;59.62;99377.91;3122512;28;20523;-72
2022/05/28 05:38:40;;;;;;;15.93;6.47;;;;;;;22.46;59.37;99362.81;3121819;28;20099;-73
2022/05/28 05:40:13;;;;;;;17.52;7.22;;;;;;;22.58;58.90;99375.84;3115367;28;20045;-74
2022/05/28 05:41:44;;;;;;;15.10;7.03;;;;;;;22.60;58.70;99371.22;3122070;28;20135;-72
2022/05/28 05:43:16;;;;;;;17.30;7.45;;;;;;;22.70;58.68;99377.22;3121659;28;20199;-74
2022/05/28 05:44:47;;;;;;;16.80;7.28;;;;;;;22.78;58.33;99387.06;3121771;28;20446;-74
2022/05/28 05:46:19;;;;;;;20.45;7.35;;;;;;;22.86;58.32;99390.56;3121839;28;20060;-74
2022/05/28 05:47:50;;;;;;;12.68;6.70;;;;;;;22.89;58.13;99390.28;3121215;28;20049;-73
2022/05/28 05:49:22;;;;;;;19.70;6.60;;;;;;;23.06;57.64;99401.00;3121704;28;20045;-77
2022/05/28 05:50:56;;;;;;;16.75;7.57;;;;;;;23.02;57.09;99373.13;3121803;28;20111;-75
2022/05/28 05:52:28;;;;;;;20.52;7.10;;;;;;;22.93;57.00;99341.19;3121201;28;20046;-77
2022/05/28 05:53:59;;;;;;;16.30;7.43;;;;;;;23.38;56.61;99400.31;3121221;28;20537;-71
2022/05/28 05:55:31;;;;;;;15.93;7.72;;;;;;;23.37;56.15;99396.81;3121169;28;20049;-72
2022/05/28 05:57:04;;;;;;;13.70;6.85;;;;;;;23.47;55.90;99398.50;3127883;28;20114;-72
2022/05/28 05:58:36;;;;;;;15.93;6.57;;;;;;;23.35;55.91;99376.72;3121997;28;20049;-70
2022/05/28 06:00:09;;;;;;;17.15;7.28;;;;;;;23.59;55.50;99407.84;3121753;28;20122;-72
2022/05/28 06:01:41;;;;;;;14.57;6.72;;;;;;;23.67;55.52;99407.84;3116245;28;20507;-71
2022/05/28 06:03:17;;;;;;;21.50;6.32;;;;;;;23.77;55.79;99402.41;3121551;28;20049;-69
2022/05/28 06:04:49;;;;;;;18.33;6.50;;;;;;;23.86;55.54;99404.09;3121348;28;20446;-68
2022/05/28 06:06:22;;;;;;;13.48;6.20;;;;;;;23.84;54.96;99383.00;3121869;28;20041;-69
2022/05/28 06:07:54;;;;;;;18.63;7.50;;;;;;;24.09;54.84;99403.44;3121448;28;20053;-68
2022/05/28 06:09:26;;;;;;;15.40;6.45;;;;;;;24.21;54.38;99418.91;3121662;28;20089;-68
2022/05/28 06:10:58;;;;;;;21.10;7.47;;;;;;;24.25;53.86;99396.31;3122287;28;20053;-68
2022/05/28 06:12:30;;;;;;;20.05;6.63;;;;;;;24.38;53.88;99410.94;3124997;28;20107;-68
2022/05/28 06:14:03;;;;;;;27.00;10.27;;;;;;;24.47;53.54;99416.09;3132613;28;20119;-71
2022/05/28 06:15:35;;;;;;;23.40;8.85;;;;;;;24.54;53.07;99416.25;3130678;28;20080;-71
2022/05/28 06:17:07;;;;;;;24.42;13.88;;;;;;;24.63;52.83;99415.25;3128975;28;20091;-68
2022/05/28 06:18:39;;;;;;;17.70;7.53;;;;;;;24.74;53.00;99414.88;3121745;28;20577;-67
2022/05/28 06:20:13;;;;;;;19.98;6.78;;;;;;;24.78;52.31;99406.56;3119696;28;20068;-68
2022/05/28 06:21:46;;;;;;;13.48;6.68;;;;;;;24.91;52.18;99414.88;3120913;28;20053;-69
2022/05/28 06:23:18;;;;;;;17.05;8.30;;;;;;;25.04;51.98;99411.66;3121314;28;20049;-70
2022/05/28 06:24:49;;;;;;;18.05;8.38;;;;;;;25.13;51.67;99419.47;3121311;28;20061;-69
2022/05/28 06:26:22;;;;;;;16.42;7.30;;;;;;;25.24;51.46;99420.09;3120965;28;20061;-72
2022/05/28 06:27:53;;;;;;;26.40;8.50;;;;;;;25.35;51.06;99420.56;3121615;28;20050;-65
2022/05/28 06:29:25;;;;;;;18.63;7.20;;;;;;;25.43;50.83;99417.00;3131099;28;20049;-66
2022/05/28 06:31:00;;;;;;;19.42;7.60;;;;;;;25.48;51.09;99412.00;3121836;28;20053;-67
2022/05/28 06:32:32;;;;;;;17.75;7.25;;;;;;;25.57;50.91;99415.44;3128997;28;20053;-68
2022/05/28 06:34:04;;;;;;;14.82;6.38;;;;;;;25.61;50.60;99412.22;3128297;28;20107;-67
2022/05/28 06:35:35;;;;;;;15.10;6.95;;;;;;;25.72;50.37;99419.00;3120899;28;20480;-69
2022/05/28 06:37:10;;;;;;;19.23;7.63;;;;;;;25.77;50.58;99416.66;3121201;28;20053;-73
2022/05/28 06:38:42;;;;;;;17.55;6.50;;;;;;;25.83;50.19;99413.31;3120794;28;20060;-73
2022/05/28 06:40:14;;;;;;;18.67;6.93;;;;;;;25.85;50.01;99408.63;3121413;28;20103;-75
2022/05/28 06:41:46;;;;;;;15.80;7.32;;;;;;;25.81;49.53;99403.78;3114654;28;20049;-71
2022/05/28 06:43:18;;;;;;;14.35;6.68;;;;;;;25.96;49.87;99409.22;3120451;28;20112;-71
2022/05/28 06:44:50;;;;;;;15.35;6.57;;;;;;;25.98;49.43;99397.38;3121231;28;20127;-69
2022/05/28 06:46:22;;;;;;;20.60;6.72;;;;;;;26.04;49.59;99399.31;3120908;28;20533;-70
2022/05/28 06:47:54;;;;;;;18.15;6.32;;;;;;;26.14;49.21;99400.91;3121067;28;20057;-68
2022/05/28 06:49:26;;;;;;;17.60;6.32;;;;;;;26.19;48.35;99401.22;3120962;28;20056;-69
2022/05/28 06:51:03;;;;;;;12.05;5.78;;;;;;;26.22;47.33;99414.19;3120889;28;20057;-71
2022/05/28 06:52:36;;;;;;;15.15;6.00;;;;;;;26.19;47.33;99403.88;3121131;28;20063;-71
2022/05/28 06:54:08;;;;;;;11.68;5.53;;;;;;;26.24;47.21;99401.50;3120318;28;20042;-69
2022/05/28 06:55:40;;;;;;;15.07;5.85;;;;;;;26.25;47.02;99393.31;3121317;28;20057;-70
2022/05/28 06:57:12;;;;;;;12.05;6.22;;;;;;;26.27;46.91;99393.13;3124426;28;20537;-70
2022/05/28 06:58:44;;;;;;;14.82;5.50;;;;;;;26.29;46.77;99404.44;3120949;28;20053;-70
2022/05/28 07:00:16;;;;;;;11.30;5.33;;;;;;;26.13;46.53;99381.41;3120845;28;20428;-72
2022/05/28 07:01:53;;;;;;;15.10;6.00;;;;;;;26.37;46.81;99399.03;3121789;28;20045;-72
2022/05/28 07:03:27;;;;;;;17.83;6.55;;;;;;;26.42;46.64;99394.00;3129836;28;20061;-70
2022/05/28 07:04:58;;;;;;;17.52;5.72;;;;;;;26.49;46.82;99402.09;3121662;28;20080;-67
2022/05/28 07:06:32;;;;;;;12.00;6.43;;;;;;;26.51;46.70;99395.59;3120792;28;20123;-68
2022/05/28 07:08:05;;;;;;;12.13;5.63;;;;;;;26.52;46.97;99381.22;3114592;28;20711;-72
2022/05/28 07:09:37;;;;;;;16.90;6.30;;;;;;;26.52;47.14;99386.56;3120638;28;20439;-70
2022/05/28 07:11:10;;;;;;;13.90;6.38;;;;;;;26.54;46.75;99375.72;3120211;28;20060;-72
2022/05/28 07:12:41;;;;;;;17.45;6.80;;;;;;;26.54;47.00;99370.38;3120808;28;20107;-73
2022/05/28 07:14:13;;;;;;;15.50;5.82;;;;;;;26.65;46.86;99379.75;3120583;28;20128;-70
2022/05/28 07:15:45;;;;;;;20.50;6.97;;;;;;;26.66;46.75;99368.91;3120417;28;20057;-69
2022/05/28 07:17:16;;;;;;;15.90;6.53;;;;;;;26.72;46.91;99368.16;3120714;28;20209;-73